sensor_id;sensor_type;location;lat;lon;timestamp;P1;durP1;ratioP1;P2;durP2;ratioP2
13441;SDS011;6793;55.662;13.114;2024-01-27T00:00:51;0.90;;;0.90;;
13441;SDS011;6793;55.662;13.114;2024-01-27T00:03:18;0.80;;;0.80;;
13441;SDS011;6793;55.662;13.114;2024-01-27T00:05:45;0.80;;;0.80;;
13441;SDS011;6793;55.662;13.114;2024-01-27T00:08:12;0.80;;;0.80;;
13441;SDS011;6793;55.662;13.114;2024-01-27T00:10:39;0.80;;;0.80;;
13441;SDS011;6793;55.662;13.114;2024-01-27T00:13:06;0.80;;;0.80;;
13441;SDS011;6793;55.662;13.114;2024-01-27T00:15:35;0.73;;;0.73;;
13441;SDS011;6793;55.662;13.114;2024-01-27T00:18:02;0.90;;;0.90;;
13441;SDS011;6793;55.662;13.114;2024-01-27T00:20:29;0.80;;;0.80;;
13441;SDS011;6793;55.662;13.114;2024-01-27T00:22:56;0.80;;;0.80;;
13441;SDS011;6793;55.662;13.114;2024-01-27T00:25:23;0.80;;;0.80;;
13441;SDS011;6793;55.662;13.114;2024-01-27T00:27:50;0.85;;;0.85;;
13441;SDS011;6793;55.662;13.114;2024-01-27T00:30:17;0.80;;;0.80;;
13441;SDS011;6793;55.662;13.114;2024-01-27T00:32:45;0.80;;;0.80;;
13441;SDS011;6793;55.662;13.114;2024-01-27T00:35:13;0.80;;;0.80;;
13441;SDS011;6793;55.662;13.114;2024-01-27T00:37:40;0.77;;;0.77;;
13441;SDS011;6793;55.662;13.114;2024-01-27T00:40:08;0.90;;;0.90;;
13441;SDS011;6793;55.662;13.114;2024-01-27T00:42:35;0.80;;;0.80;;
13441;SDS011;6793;55.662;13.114;2024-01-27T00:45:03;0.80;;;0.80;;
13441;SDS011;6793;55.662;13.114;2024-01-27T00:47:30;0.80;;;0.80;;
13441;SDS011;6793;55.662;13.114;2024-01-27T00:49:58;0.80;;;0.80;;
13441;SDS011;6793;55.662;13.114;2024-01-27T00:52:26;0.80;;;0.80;;
13441;SDS011;6793;55.662;13.114;2024-01-27T00:54:53;0.70;;;0.70;;
13441;SDS011;6793;55.662;13.114;2024-01-27T00:57:20;0.80;;;0.80;;
13441;SDS011;6793;55.662;13.114;2024-01-27T00:59:47;0.80;;;0.80;;
13441;SDS011;6793;55.662;13.114;2024-01-27T01:02:14;0.70;;;0.70;;
13441;SDS011;6793;55.662;13.114;2024-01-27T01:04:41;0.70;;;0.70;;
13441;SDS011;6793;55.662;13.114;2024-01-27T01:07:09;0.80;;;0.80;;
13441;SDS011;6793;55.662;13.114;2024-01-27T01:09:36;0.80;;;0.80;;
13441;SDS011;6793;55.662;13.114;2024-01-27T01:12:04;0.80;;;0.80;;
13441;SDS011;6793;55.662;13.114;2024-01-27T01:14:31;0.80;;;0.80;;
13441;SDS011;6793;55.662;13.114;2024-01-27T01:16:58;0.80;;;0.80;;
13441;SDS011;6793;55.662;13.114;2024-01-27T01:19:25;0.80;;;0.80;;
13441;SDS011;6793;55.662;13.114;2024-01-27T01:21:52;0.73;;;0.73;;
13441;SDS011;6793;55.662;13.114;2024-01-27T01:24:20;0.80;;;0.80;;
13441;SDS011;6793;55.662;13.114;2024-01-27T01:26:47;0.73;;;0.73;;
13441;SDS011;6793;55.662;13.114;2024-01-27T01:29:14;0.70;;;0.70;;
13441;SDS011;6793;55.662;13.114;2024-01-27T01:31:41;0.80;;;0.80;;
13441;SDS011;6793;55.662;13.114;2024-01-27T01:34:08;0.70;;;0.70;;
13441;SDS011;6793;55.662;13.114;2024-01-27T01:36:35;0.80;;;0.80;;
13441;SDS011;6793;55.662;13.114;2024-01-27T01:39:03;0.80;;;0.80;;
13441;SDS011;6793;55.662;13.114;2024-01-27T01:41:32;0.73;;;0.73;;
13441;SDS011;6793;55.662;13.114;2024-01-27T01:43:59;0.70;;;0.70;;
13441;SDS011;6793;55.662;13.114;2024-01-27T01:46:26;0.80;;;0.80;;
13441;SDS011;6793;55.662;13.114;2024-01-27T01:48:53;0.77;;;0.77;;
13441;SDS011;6793;55.662;13.114;2024-01-27T01:51:20;0.77;;;0.77;;
13441;SDS011;6793;55.662;13.114;2024-01-27T01:53:48;0.75;;;0.75;;
13441;SDS011;6793;55.662;13.114;2024-01-27T01:56:15;0.65;;;0.65;;
13441;SDS011;6793;55.662;13.114;2024-01-27T01:58:44;0.80;;;0.80;;
13441;SDS011;6793;55.662;13.114;2024-01-27T02:01:11;0.60;;;0.60;;
13441;SDS011;6793;55.662;13.114;2024-01-27T02:03:38;0.70;;;0.70;;
13441;SDS011;6793;55.662;13.114;2024-01-27T02:06:05;0.70;;;0.70;;
13441;SDS011;6793;55.662;13.114;2024-01-27T02:08:33;0.68;;;0.68;;
13441;SDS011;6793;55.662;13.114;2024-01-27T02:11:00;0.70;;;0.70;;
13441;SDS011;6793;55.662;13.114;2024-01-27T02:13:28;0.70;;;0.70;;
13441;SDS011;6793;55.662;13.114;2024-01-27T02:15:56;0.70;;;0.70;;
13441;SDS011;6793;55.662;13.114;2024-01-27T02:18:23;0.70;;;0.70;;
13441;SDS011;6793;55.662;13.114;2024-01-27T02:20:50;0.70;;;0.70;;
13441;SDS011;6793;55.662;13.114;2024-01-27T02:23:17;0.80;;;0.80;;
13441;SDS011;6793;55.662;13.114;2024-01-27T02:25:45;0.70;;;0.70;;
13441;SDS011;6793;55.662;13.114;2024-01-27T02:28:12;0.73;;;0.73;;
13441;SDS011;6793;55.662;13.114;2024-01-27T02:30:39;0.70;;;0.70;;
13441;SDS011;6793;55.662;13.114;2024-01-27T02:33:06;0.70;;;0.70;;
13441;SDS011;6793;55.662;13.114;2024-01-27T02:35:34;0.80;;;0.80;;
13441;SDS011;6793;55.662;13.114;2024-01-27T02:38:01;0.80;;;0.80;;
13441;SDS011;6793;55.662;13.114;2024-01-27T02:40:28;0.80;;;0.80;;
13441;SDS011;6793;55.662;13.114;2024-01-27T02:42:57;0.77;;;0.77;;
13441;SDS011;6793;55.662;13.114;2024-01-27T02:45:24;0.80;;;0.80;;
13441;SDS011;6793;55.662;13.114;2024-01-27T02:47:54;0.70;;;0.70;;
13441;SDS011;6793;55.662;13.114;2024-01-27T02:50:21;0.70;;;0.70;;
13441;SDS011;6793;55.662;13.114;2024-01-27T02:52:48;0.80;;;0.80;;
13441;SDS011;6793;55.662;13.114;2024-01-27T02:55:15;0.70;;;0.70;;
13441;SDS011;6793;55.662;13.114;2024-01-27T02:57:42;0.70;;;0.70;;
13441;SDS011;6793;55.662;13.114;2024-01-27T03:00:11;0.70;;;0.70;;
13441;SDS011;6793;55.662;13.114;2024-01-27T03:02:38;0.80;;;0.80;;
13441;SDS011;6793;55.662;13.114;2024-01-27T03:05:05;0.70;;;0.70;;
13441;SDS011;6793;55.662;13.114;2024-01-27T03:07:33;0.70;;;0.70;;
13441;SDS011;6793;55.662;13.114;2024-01-27T03:10:00;0.70;;;0.70;;
13441;SDS011;6793;55.662;13.114;2024-01-27T03:12:27;0.80;;;0.80;;
13441;SDS011;6793;55.662;13.114;2024-01-27T03:14:54;0.70;;;0.70;;
13441;SDS011;6793;55.662;13.114;2024-01-27T03:17:22;0.70;;;0.70;;
13441;SDS011;6793;55.662;13.114;2024-01-27T03:19:49;0.70;;;0.70;;
13441;SDS011;6793;55.662;13.114;2024-01-27T03:22:16;0.70;;;0.70;;
13441;SDS011;6793;55.662;13.114;2024-01-27T03:24:43;0.70;;;0.70;;
13441;SDS011;6793;55.662;13.114;2024-01-27T03:27:10;0.70;;;0.70;;
13441;SDS011;6793;55.662;13.114;2024-01-27T03:29:37;0.60;;;0.60;;
13441;SDS011;6793;55.662;13.114;2024-01-27T03:32:04;0.60;;;0.60;;
13441;SDS011;6793;55.662;13.114;2024-01-27T03:34:33;0.73;;;0.73;;
13441;SDS011;6793;55.662;13.114;2024-01-27T03:37:00;0.70;;;0.70;;
13441;SDS011;6793;55.662;13.114;2024-01-27T03:39:27;0.70;;;0.70;;
13441;SDS011;6793;55.662;13.114;2024-01-27T03:41:54;0.60;;;0.60;;
13441;SDS011;6793;55.662;13.114;2024-01-27T03:44:21;0.63;;;0.63;;
13441;SDS011;6793;55.662;13.114;2024-01-27T03:46:48;0.60;;;0.60;;
13441;SDS011;6793;55.662;13.114;2024-01-27T03:49:16;0.60;;;0.60;;
13441;SDS011;6793;55.662;13.114;2024-01-27T03:51:44;0.70;;;0.70;;
13441;SDS011;6793;55.662;13.114;2024-01-27T03:54:11;0.60;;;0.60;;
13441;SDS011;6793;55.662;13.114;2024-01-27T03:56:40;0.70;;;0.70;;
13441;SDS011;6793;55.662;13.114;2024-01-27T03:59:08;0.70;;;0.70;;
13441;SDS011;6793;55.662;13.114;2024-01-27T04:01:36;0.70;;;0.70;;
13441;SDS011;6793;55.662;13.114;2024-01-27T04:04:03;0.70;;;0.70;;
13441;SDS011;6793;55.662;13.114;2024-01-27T04:06:35;0.70;;;0.70;;
13441;SDS011;6793;55.662;13.114;2024-01-27T04:09:03;0.60;;;0.60;;
13441;SDS011;6793;55.662;13.114;2024-01-27T04:11:33;0.70;;;0.70;;
13441;SDS011;6793;55.662;13.114;2024-01-27T04:14:00;0.60;;;0.60;;
13441;SDS011;6793;55.662;13.114;2024-01-27T04:16:27;0.60;;;0.60;;
13441;SDS011;6793;55.662;13.114;2024-01-27T04:18:54;0.70;;;0.70;;
13441;SDS011;6793;55.662;13.114;2024-01-27T04:21:22;0.70;;;0.70;;
13441;SDS011;6793;55.662;13.114;2024-01-27T04:23:49;0.60;;;0.60;;
13441;SDS011;6793;55.662;13.114;2024-01-27T04:26:17;0.70;;;0.70;;
13441;SDS011;6793;55.662;13.114;2024-01-27T04:28:44;0.60;;;0.60;;
13441;SDS011;6793;55.662;13.114;2024-01-27T04:31:11;0.70;;;0.70;;
13441;SDS011;6793;55.662;13.114;2024-01-27T04:33:38;0.70;;;0.70;;
13441;SDS011;6793;55.662;13.114;2024-01-27T04:36:05;0.70;;;0.70;;
13441;SDS011;6793;55.662;13.114;2024-01-27T04:38:34;0.60;;;0.60;;
13441;SDS011;6793;55.662;13.114;2024-01-27T04:41:01;0.65;;;0.65;;
13441;SDS011;6793;55.662;13.114;2024-01-27T04:43:30;0.60;;;0.60;;
13441;SDS011;6793;55.662;13.114;2024-01-27T04:45:57;0.70;;;0.70;;
13441;SDS011;6793;55.662;13.114;2024-01-27T04:48:24;0.60;;;0.60;;
13441;SDS011;6793;55.662;13.114;2024-01-27T04:50:51;0.70;;;0.70;;
13441;SDS011;6793;55.662;13.114;2024-01-27T04:53:18;0.70;;;0.70;;
13441;SDS011;6793;55.662;13.114;2024-01-27T04:55:45;0.60;;;0.60;;
13441;SDS011;6793;55.662;13.114;2024-01-27T04:58:12;0.70;;;0.70;;
13441;SDS011;6793;55.662;13.114;2024-01-27T05:00:41;0.60;;;0.60;;
13441;SDS011;6793;55.662;13.114;2024-01-27T05:03:08;0.60;;;0.60;;
13441;SDS011;6793;55.662;13.114;2024-01-27T05:05:40;0.60;;;0.60;;
13441;SDS011;6793;55.662;13.114;2024-01-27T05:08:07;0.60;;;0.60;;
13441;SDS011;6793;55.662;13.114;2024-01-27T05:10:34;0.60;;;0.60;;
13441;SDS011;6793;55.662;13.114;2024-01-27T05:13:01;0.60;;;0.60;;
13441;SDS011;6793;55.662;13.114;2024-01-27T05:15:28;0.60;;;0.60;;
13441;SDS011;6793;55.662;13.114;2024-01-27T05:17:56;0.60;;;0.60;;
13441;SDS011;6793;55.662;13.114;2024-01-27T05:20:23;0.60;;;0.60;;
13441;SDS011;6793;55.662;13.114;2024-01-27T05:22:50;0.60;;;0.60;;
13441;SDS011;6793;55.662;13.114;2024-01-27T05:25:18;0.60;;;0.60;;
13441;SDS011;6793;55.662;13.114;2024-01-27T05:27:45;0.60;;;0.60;;
13441;SDS011;6793;55.662;13.114;2024-01-27T05:30:12;0.60;;;0.60;;
13441;SDS011;6793;55.662;13.114;2024-01-27T05:32:39;0.60;;;0.60;;
13441;SDS011;6793;55.662;13.114;2024-01-27T05:35:08;0.60;;;0.60;;
13441;SDS011;6793;55.662;13.114;2024-01-27T05:37:35;0.60;;;0.60;;
13441;SDS011;6793;55.662;13.114;2024-01-27T05:40:04;0.60;;;0.60;;
13441;SDS011;6793;55.662;13.114;2024-01-27T05:42:32;0.60;;;0.60;;
13441;SDS011;6793;55.662;13.114;2024-01-27T05:44:59;0.60;;;0.60;;
13441;SDS011;6793;55.662;13.114;2024-01-27T05:47:26;0.60;;;0.60;;
13441;SDS011;6793;55.662;13.114;2024-01-27T05:49:53;0.60;;;0.60;;
13441;SDS011;6793;55.662;13.114;2024-01-27T05:52:21;0.70;;;0.70;;
13441;SDS011;6793;55.662;13.114;2024-01-27T05:54:50;0.50;;;0.50;;
13441;SDS011;6793;55.662;13.114;2024-01-27T05:57:17;0.60;;;0.60;;
13441;SDS011;6793;55.662;13.114;2024-01-27T05:59:44;0.60;;;0.60;;
13441;SDS011;6793;55.662;13.114;2024-01-27T06:02:11;0.60;;;0.60;;
13441;SDS011;6793;55.662;13.114;2024-01-27T06:04:39;0.60;;;0.60;;
13441;SDS011;6793;55.662;13.114;2024-01-27T06:07:06;0.68;;;0.68;;
13441;SDS011;6793;55.662;13.114;2024-01-27T06:09:34;0.60;;;0.60;;
13441;SDS011;6793;55.662;13.114;2024-01-27T06:12:04;0.60;;;0.60;;
13441;SDS011;6793;55.662;13.114;2024-01-27T06:14:31;0.60;;;0.60;;
13441;SDS011;6793;55.662;13.114;2024-01-27T06:16:58;0.60;;;0.60;;
13441;SDS011;6793;55.662;13.114;2024-01-27T06:19:25;0.50;;;0.50;;
13441;SDS011;6793;55.662;13.114;2024-01-27T06:21:52;0.50;;;0.50;;
13441;SDS011;6793;55.662;13.114;2024-01-27T06:24:19;0.60;;;0.60;;
13441;SDS011;6793;55.662;13.114;2024-01-27T06:26:47;0.60;;;0.60;;
13441;SDS011;6793;55.662;13.114;2024-01-27T06:29:14;0.60;;;0.60;;
13441;SDS011;6793;55.662;13.114;2024-01-27T06:31:43;0.50;;;0.50;;
13441;SDS011;6793;55.662;13.114;2024-01-27T06:34:10;0.50;;;0.50;;
13441;SDS011;6793;55.662;13.114;2024-01-27T06:36:37;0.60;;;0.60;;
13441;SDS011;6793;55.662;13.114;2024-01-27T06:39:04;0.60;;;0.60;;
13441;SDS011;6793;55.662;13.114;2024-01-27T06:41:32;0.50;;;0.50;;
13441;SDS011;6793;55.662;13.114;2024-01-27T06:44:01;0.50;;;0.50;;
13441;SDS011;6793;55.662;13.114;2024-01-27T06:46:29;0.60;;;0.60;;
13441;SDS011;6793;55.662;13.114;2024-01-27T06:48:56;0.50;;;0.50;;
13441;SDS011;6793;55.662;13.114;2024-01-27T06:51:23;0.50;;;0.50;;
13441;SDS011;6793;55.662;13.114;2024-01-27T06:53:50;0.50;;;0.50;;
13441;SDS011;6793;55.662;13.114;2024-01-27T06:56:17;0.40;;;0.40;;
13441;SDS011;6793;55.662;13.114;2024-01-27T06:58:44;0.40;;;0.40;;
13441;SDS011;6793;55.662;13.114;2024-01-27T07:01:12;0.40;;;0.40;;
13441;SDS011;6793;55.662;13.114;2024-01-27T07:03:39;0.40;;;0.40;;
13441;SDS011;6793;55.662;13.114;2024-01-27T07:06:06;0.40;;;0.40;;
13441;SDS011;6793;55.662;13.114;2024-01-27T07:08:33;0.40;;;0.40;;
13441;SDS011;6793;55.662;13.114;2024-01-27T07:11:01;0.40;;;0.40;;
13441;SDS011;6793;55.662;13.114;2024-01-27T07:13:28;0.40;;;0.40;;
13441;SDS011;6793;55.662;13.114;2024-01-27T07:15:55;0.40;;;0.40;;
13441;SDS011;6793;55.662;13.114;2024-01-27T07:18:24;0.40;;;0.40;;
13441;SDS011;6793;55.662;13.114;2024-01-27T07:20:51;0.20;;;0.20;;
13441;SDS011;6793;55.662;13.114;2024-01-27T07:23:19;0.40;;;0.40;;
13441;SDS011;6793;55.662;13.114;2024-01-27T07:25:46;0.40;;;0.40;;
13441;SDS011;6793;55.662;13.114;2024-01-27T07:28:13;0.40;;;0.40;;
13441;SDS011;6793;55.662;13.114;2024-01-27T07:30:43;0.40;;;0.40;;
13441;SDS011;6793;55.662;13.114;2024-01-27T07:33:10;0.40;;;0.40;;
13441;SDS011;6793;55.662;13.114;2024-01-27T07:35:39;0.30;;;0.30;;
13441;SDS011;6793;55.662;13.114;2024-01-27T07:38:06;0.30;;;0.30;;
13441;SDS011;6793;55.662;13.114;2024-01-27T07:40:33;0.40;;;0.40;;
13441;SDS011;6793;55.662;13.114;2024-01-27T07:43:00;0.40;;;0.40;;
13441;SDS011;6793;55.662;13.114;2024-01-27T07:45:28;0.40;;;0.40;;
13441;SDS011;6793;55.662;13.114;2024-01-27T07:47:55;0.40;;;0.40;;
13441;SDS011;6793;55.662;13.114;2024-01-27T07:50:22;0.40;;;0.40;;
13441;SDS011;6793;55.662;13.114;2024-01-27T07:52:50;0.40;;;0.40;;
13441;SDS011;6793;55.662;13.114;2024-01-27T07:55:17;0.40;;;0.40;;
13441;SDS011;6793;55.662;13.114;2024-01-27T07:57:44;0.40;;;0.40;;
13441;SDS011;6793;55.662;13.114;2024-01-27T08:00:12;0.30;;;0.30;;
13441;SDS011;6793;55.662;13.114;2024-01-27T08:02:39;0.40;;;0.40;;
13441;SDS011;6793;55.662;13.114;2024-01-27T08:05:06;0.40;;;0.40;;
13441;SDS011;6793;55.662;13.114;2024-01-27T08:07:33;0.40;;;0.40;;
13441;SDS011;6793;55.662;13.114;2024-01-27T08:10:02;0.40;;;0.40;;
13441;SDS011;6793;55.662;13.114;2024-01-27T08:12:29;0.30;;;0.30;;
13441;SDS011;6793;55.662;13.114;2024-01-27T08:14:56;0.30;;;0.30;;
13441;SDS011;6793;55.662;13.114;2024-01-27T08:17:23;0.30;;;0.30;;
13441;SDS011;6793;55.662;13.114;2024-01-27T08:19:51;0.30;;;0.30;;
13441;SDS011;6793;55.662;13.114;2024-01-27T08:22:18;0.28;;;0.28;;
13441;SDS011;6793;55.662;13.114;2024-01-27T08:24:45;0.30;;;0.30;;
13441;SDS011;6793;55.662;13.114;2024-01-27T08:27:13;0.25;;;0.25;;
13441;SDS011;6793;55.662;13.114;2024-01-27T08:29:40;0.28;;;0.28;;
13441;SDS011;6793;55.662;13.114;2024-01-27T08:32:07;0.30;;;0.30;;
13441;SDS011;6793;55.662;13.114;2024-01-27T08:34:34;0.30;;;0.30;;
13441;SDS011;6793;55.662;13.114;2024-01-27T08:37:01;0.30;;;0.30;;
13441;SDS011;6793;55.662;13.114;2024-01-27T08:39:28;0.30;;;0.30;;
13441;SDS011;6793;55.662;13.114;2024-01-27T08:41:58;0.30;;;0.30;;
13441;SDS011;6793;55.662;13.114;2024-01-27T08:44:27;0.30;;;0.30;;
13441;SDS011;6793;55.662;13.114;2024-01-27T08:46:57;0.30;;;0.30;;
13441;SDS011;6793;55.662;13.114;2024-01-27T08:49:24;0.30;;;0.30;;
13441;SDS011;6793;55.662;13.114;2024-01-27T08:51:51;0.25;;;0.25;;
13441;SDS011;6793;55.662;13.114;2024-01-27T08:54:18;0.30;;;0.30;;
13441;SDS011;6793;55.662;13.114;2024-01-27T08:56:45;0.20;;;0.20;;
13441;SDS011;6793;55.662;13.114;2024-01-27T08:59:12;0.20;;;0.20;;
13441;SDS011;6793;55.662;13.114;2024-01-27T09:01:41;0.30;;;0.30;;
13441;SDS011;6793;55.662;13.114;2024-01-27T09:04:08;0.30;;;0.30;;
13441;SDS011;6793;55.662;13.114;2024-01-27T09:06:35;0.22;;;0.22;;
13441;SDS011;6793;55.662;13.114;2024-01-27T09:09:02;0.30;;;0.30;;
13441;SDS011;6793;55.662;13.114;2024-01-27T09:11:29;0.22;;;0.22;;
13441;SDS011;6793;55.662;13.114;2024-01-27T09:13:57;0.20;;;0.20;;
13441;SDS011;6793;55.662;13.114;2024-01-27T09:16:24;0.20;;;0.20;;
13441;SDS011;6793;55.662;13.114;2024-01-27T09:18:52;0.20;;;0.20;;
13441;SDS011;6793;55.662;13.114;2024-01-27T09:21:19;0.20;;;0.20;;
13441;SDS011;6793;55.662;13.114;2024-01-27T09:23:53;0.20;;;0.20;;
13441;SDS011;6793;55.662;13.114;2024-01-27T09:26:20;0.20;;;0.20;;
13441;SDS011;6793;55.662;13.114;2024-01-27T09:28:48;0.20;;;0.20;;
13441;SDS011;6793;55.662;13.114;2024-01-27T09:31:19;0.25;;;0.25;;
13441;SDS011;6793;55.662;13.114;2024-01-27T09:33:46;0.20;;;0.20;;
13441;SDS011;6793;55.662;13.114;2024-01-27T09:36:15;0.20;;;0.20;;
13441;SDS011;6793;55.662;13.114;2024-01-27T09:38:42;0.20;;;0.20;;
13441;SDS011;6793;55.662;13.114;2024-01-27T09:41:12;0.22;;;0.22;;
13441;SDS011;6793;55.662;13.114;2024-01-27T09:43:41;0.28;;;0.28;;
13441;SDS011;6793;55.662;13.114;2024-01-27T09:46:09;0.30;;;0.30;;
13441;SDS011;6793;55.662;13.114;2024-01-27T09:48:36;0.20;;;0.20;;
13441;SDS011;6793;55.662;13.114;2024-01-27T09:51:07;0.30;;;0.30;;
13441;SDS011;6793;55.662;13.114;2024-01-27T09:53:35;0.20;;;0.20;;
13441;SDS011;6793;55.662;13.114;2024-01-27T09:56:03;0.30;;;0.30;;
13441;SDS011;6793;55.662;13.114;2024-01-27T09:58:30;0.28;;;0.28;;
13441;SDS011;6793;55.662;13.114;2024-01-27T10:00:58;0.30;;;0.30;;
13441;SDS011;6793;55.662;13.114;2024-01-27T10:03:26;0.20;;;0.20;;
13441;SDS011;6793;55.662;13.114;2024-01-27T10:05:53;0.30;;;0.30;;
13441;SDS011;6793;55.662;13.114;2024-01-27T10:08:22;0.30;;;0.30;;
13441;SDS011;6793;55.662;13.114;2024-01-27T10:10:51;0.20;;;0.20;;
13441;SDS011;6793;55.662;13.114;2024-01-27T10:13:20;0.20;;;0.20;;
13441;SDS011;6793;55.662;13.114;2024-01-27T10:15:58;0.20;;;0.20;;
13441;SDS011;6793;55.662;13.114;2024-01-27T10:18:26;0.25;;;0.25;;
13441;SDS011;6793;55.662;13.114;2024-01-27T10:20:53;0.30;;;0.30;;
13441;SDS011;6793;55.662;13.114;2024-01-27T10:23:20;0.20;;;0.20;;
13441;SDS011;6793;55.662;13.114;2024-01-27T10:25:47;0.20;;;0.20;;
13441;SDS011;6793;55.662;13.114;2024-01-27T10:28:16;0.20;;;0.20;;
13441;SDS011;6793;55.662;13.114;2024-01-27T10:30:43;0.30;;;0.30;;
13441;SDS011;6793;55.662;13.114;2024-01-27T10:33:10;0.30;;;0.30;;
13441;SDS011;6793;55.662;13.114;2024-01-27T10:35:38;0.20;;;0.20;;
13441;SDS011;6793;55.662;13.114;2024-01-27T10:38:05;0.30;;;0.30;;
13441;SDS011;6793;55.662;13.114;2024-01-27T10:40:32;0.30;;;0.30;;
13441;SDS011;6793;55.662;13.114;2024-01-27T10:43:03;0.30;;;0.30;;
13441;SDS011;6793;55.662;13.114;2024-01-27T10:45:33;0.30;;;0.30;;
13441;SDS011;6793;55.662;13.114;2024-01-27T10:48:02;0.30;;;0.30;;
13441;SDS011;6793;55.662;13.114;2024-01-27T10:50:29;0.30;;;0.30;;
13441;SDS011;6793;55.662;13.114;2024-01-27T10:52:57;0.30;;;0.30;;
13441;SDS011;6793;55.662;13.114;2024-01-27T10:55:24;0.30;;;0.30;;
13441;SDS011;6793;55.662;13.114;2024-01-27T10:57:52;0.30;;;0.30;;
13441;SDS011;6793;55.662;13.114;2024-01-27T11:00:20;0.30;;;0.30;;
13441;SDS011;6793;55.662;13.114;2024-01-27T11:02:49;0.30;;;0.30;;
13441;SDS011;6793;55.662;13.114;2024-01-27T11:05:19;0.25;;;0.25;;
13441;SDS011;6793;55.662;13.114;2024-01-27T11:07:47;0.30;;;0.30;;
13441;SDS011;6793;55.662;13.114;2024-01-27T11:10:14;0.30;;;0.30;;
13441;SDS011;6793;55.662;13.114;2024-01-27T11:12:41;0.30;;;0.30;;
13441;SDS011;6793;55.662;13.114;2024-01-27T11:15:08;0.30;;;0.30;;
13441;SDS011;6793;55.662;13.114;2024-01-27T11:17:39;0.30;;;0.30;;
13441;SDS011;6793;55.662;13.114;2024-01-27T11:20:09;0.30;;;0.30;;
13441;SDS011;6793;55.662;13.114;2024-01-27T11:22:37;0.20;;;0.20;;
13441;SDS011;6793;55.662;13.114;2024-01-27T11:25:07;0.30;;;0.30;;
13441;SDS011;6793;55.662;13.114;2024-01-27T11:27:34;0.30;;;0.30;;
13441;SDS011;6793;55.662;13.114;2024-01-27T11:30:02;0.30;;;0.30;;
13441;SDS011;6793;55.662;13.114;2024-01-27T11:32:29;0.20;;;0.20;;
13441;SDS011;6793;55.662;13.114;2024-01-27T11:35:00;0.30;;;0.30;;
13441;SDS011;6793;55.662;13.114;2024-01-27T11:37:31;0.30;;;0.30;;
13441;SDS011;6793;55.662;13.114;2024-01-27T11:40:03;0.30;;;0.30;;
13441;SDS011;6793;55.662;13.114;2024-01-27T11:42:31;0.38;;;0.38;;
13441;SDS011;6793;55.662;13.114;2024-01-27T11:44:58;0.30;;;0.30;;
13441;SDS011;6793;55.662;13.114;2024-01-27T11:47:25;0.32;;;0.32;;
13441;SDS011;6793;55.662;13.114;2024-01-27T11:49:53;0.30;;;0.30;;
13441;SDS011;6793;55.662;13.114;2024-01-27T11:52:21;0.30;;;0.30;;
13441;SDS011;6793;55.662;13.114;2024-01-27T11:54:54;0.30;;;0.30;;
13441;SDS011;6793;55.662;13.114;2024-01-27T11:57:21;0.30;;;0.30;;
13441;SDS011;6793;55.662;13.114;2024-01-27T11:59:49;0.30;;;0.30;;
13441;SDS011;6793;55.662;13.114;2024-01-27T12:02:17;0.30;;;0.30;;
13441;SDS011;6793;55.662;13.114;2024-01-27T12:04:44;0.40;;;0.40;;
13441;SDS011;6793;55.662;13.114;2024-01-27T12:07:11;0.40;;;0.40;;
13441;SDS011;6793;55.662;13.114;2024-01-27T12:09:38;0.30;;;0.30;;
13441;SDS011;6793;55.662;13.114;2024-01-27T12:12:06;0.30;;;0.30;;
13441;SDS011;6793;55.662;13.114;2024-01-27T12:14:38;0.30;;;0.30;;
13441;SDS011;6793;55.662;13.114;2024-01-27T12:17:07;0.40;;;0.40;;
13441;SDS011;6793;55.662;13.114;2024-01-27T12:19:35;0.30;;;0.30;;
13441;SDS011;6793;55.662;13.114;2024-01-27T12:22:02;0.30;;;0.30;;
13441;SDS011;6793;55.662;13.114;2024-01-27T12:24:29;0.30;;;0.30;;
13441;SDS011;6793;55.662;13.114;2024-01-27T12:26:57;0.30;;;0.30;;
13441;SDS011;6793;55.662;13.114;2024-01-27T12:29:25;0.30;;;0.30;;
13441;SDS011;6793;55.662;13.114;2024-01-27T12:31:53;0.30;;;0.30;;
13441;SDS011;6793;55.662;13.114;2024-01-27T12:34:20;0.30;;;0.30;;
13441;SDS011;6793;55.662;13.114;2024-01-27T12:36:48;0.30;;;0.30;;
13441;SDS011;6793;55.662;13.114;2024-01-27T12:39:16;0.30;;;0.30;;
13441;SDS011;6793;55.662;13.114;2024-01-27T12:41:43;0.30;;;0.30;;
13441;SDS011;6793;55.662;13.114;2024-01-27T12:44:10;0.30;;;0.30;;
13441;SDS011;6793;55.662;13.114;2024-01-27T12:46:39;0.30;;;0.30;;
13441;SDS011;6793;55.662;13.114;2024-01-27T12:49:06;0.30;;;0.30;;
13441;SDS011;6793;55.662;13.114;2024-01-27T12:51:33;0.40;;;0.40;;
13441;SDS011;6793;55.662;13.114;2024-01-27T12:54:00;0.38;;;0.38;;
13441;SDS011;6793;55.662;13.114;2024-01-27T12:56:27;0.30;;;0.30;;
13441;SDS011;6793;55.662;13.114;2024-01-27T12:58:54;0.40;;;0.40;;
13441;SDS011;6793;55.662;13.114;2024-01-27T13:01:22;0.30;;;0.30;;
13441;SDS011;6793;55.662;13.114;2024-01-27T13:03:50;0.30;;;0.30;;
13441;SDS011;6793;55.662;13.114;2024-01-27T13:06:17;0.30;;;0.30;;
13441;SDS011;6793;55.662;13.114;2024-01-27T13:08:45;0.30;;;0.30;;
13441;SDS011;6793;55.662;13.114;2024-01-27T13:11:12;0.40;;;0.40;;
13441;SDS011;6793;55.662;13.114;2024-01-27T13:13:39;0.40;;;0.40;;
13441;SDS011;6793;55.662;13.114;2024-01-27T13:16:07;0.40;;;0.40;;
13441;SDS011;6793;55.662;13.114;2024-01-27T13:18:34;0.40;;;0.40;;
13441;SDS011;6793;55.662;13.114;2024-01-27T13:21:02;0.40;;;0.40;;
13441;SDS011;6793;55.662;13.114;2024-01-27T13:23:31;0.40;;;0.40;;
13441;SDS011;6793;55.662;13.114;2024-01-27T13:26:08;0.30;;;0.30;;
13441;SDS011;6793;55.662;13.114;2024-01-27T13:28:35;0.30;;;0.30;;
13441;SDS011;6793;55.662;13.114;2024-01-27T13:31:02;0.30;;;0.30;;
13441;SDS011;6793;55.662;13.114;2024-01-27T13:33:29;0.30;;;0.30;;
13441;SDS011;6793;55.662;13.114;2024-01-27T13:35:57;0.30;;;0.30;;
13441;SDS011;6793;55.662;13.114;2024-01-27T13:38:26;0.40;;;0.40;;
13441;SDS011;6793;55.662;13.114;2024-01-27T13:40:53;0.40;;;0.40;;
13441;SDS011;6793;55.662;13.114;2024-01-27T13:43:20;0.30;;;0.30;;
13441;SDS011;6793;55.662;13.114;2024-01-27T13:45:47;0.40;;;0.40;;
13441;SDS011;6793;55.662;13.114;2024-01-27T13:48:14;0.40;;;0.40;;
13441;SDS011;6793;55.662;13.114;2024-01-27T13:50:41;0.32;;;0.32;;
13441;SDS011;6793;55.662;13.114;2024-01-27T13:53:08;0.40;;;0.40;;
13441;SDS011;6793;55.662;13.114;2024-01-27T13:55:36;0.30;;;0.30;;
13441;SDS011;6793;55.662;13.114;2024-01-27T13:58:05;0.30;;;0.30;;
13441;SDS011;6793;55.662;13.114;2024-01-27T14:00:32;0.40;;;0.40;;
13441;SDS011;6793;55.662;13.114;2024-01-27T14:03:00;0.35;;;0.35;;
13441;SDS011;6793;55.662;13.114;2024-01-27T14:05:27;0.40;;;0.40;;
13441;SDS011;6793;55.662;13.114;2024-01-27T14:07:54;0.40;;;0.40;;
13441;SDS011;6793;55.662;13.114;2024-01-27T14:10:22;0.40;;;0.40;;
13441;SDS011;6793;55.662;13.114;2024-01-27T14:12:51;0.40;;;0.40;;
13441;SDS011;6793;55.662;13.114;2024-01-27T14:15:18;0.40;;;0.40;;
13441;SDS011;6793;55.662;13.114;2024-01-27T14:17:45;0.30;;;0.30;;
13441;SDS011;6793;55.662;13.114;2024-01-27T14:20:12;0.35;;;0.35;;
13441;SDS011;6793;55.662;13.114;2024-01-27T14:22:39;0.40;;;0.40;;
13441;SDS011;6793;55.662;13.114;2024-01-27T14:25:07;0.40;;;0.40;;
13441;SDS011;6793;55.662;13.114;2024-01-27T14:27:34;0.40;;;0.40;;
13441;SDS011;6793;55.662;13.114;2024-01-27T14:30:03;0.35;;;0.35;;
13441;SDS011;6793;55.662;13.114;2024-01-27T14:32:30;0.40;;;0.40;;
13441;SDS011;6793;55.662;13.114;2024-01-27T14:34:58;0.40;;;0.40;;
13441;SDS011;6793;55.662;13.114;2024-01-27T14:37:25;0.30;;;0.30;;
13441;SDS011;6793;55.662;13.114;2024-01-27T14:39:52;0.50;;;0.50;;
13441;SDS011;6793;55.662;13.114;2024-01-27T14:42:19;0.40;;;0.40;;
13441;SDS011;6793;55.662;13.114;2024-01-27T14:44:46;0.40;;;0.40;;
13441;SDS011;6793;55.662;13.114;2024-01-27T14:47:15;0.38;;;0.38;;
13441;SDS011;6793;55.662;13.114;2024-01-27T14:49:42;0.40;;;0.40;;